Time;durP1;ratioP1;P1;durP2;ratioP2;P2;SDS_P1;SDS_P2;PMS_P1;PMS_P2;Temp;Humidity;BMP_temperature;BMP_pressure;BME280_temperature;BME280_humidity;BME280_pressure;Samples;Min_cycle;Max_cycle;Signal;HPM_P1;HPM_P2
2023/05/25 00:01:03;;;;;;;13.25;6.53;;;;;;;;;;5070364;28;20131;-66
2023/05/25 00:03:29;;;;;;;11.15;5.72;;;;;;;;;;5051347;28;20131;-66
2023/05/25 00:05:56;;;;;;;12.63;5.97;;;;;;;;;;5069852;28;20054;-66
2023/05/25 00:08:21;;;;;;;11.13;6.43;;;;;;;;;;5070616;28;20061;-65
2023/05/25 00:10:47;;;;;;;21.25;7.68;;;;;;;;;;5068608;28;20789;-65
2023/05/25 00:13:12;;;;;;;10.73;6.00;;;;;;;;;;5067904;28;20024;-66
2023/05/25 00:15:37;;;;;;;13.27;6.20;;;;;;;;;;5067433;28;20820;-65
2023/05/25 00:18:03;;;;;;;13.32;6.20;;;;;;;;;;5069060;28;20015;-65
2023/05/25 00:20:28;;;;;;;10.57;6.40;;;;;;;;;;5070460;28;20028;-66
2023/05/25 00:22:55;;;;;;;15.02;6.63;;;;;;;;;;5068951;28;20804;-66
2023/05/25 00:25:20;;;;;;;10.77;6.40;;;;;;;;;;5092293;28;20031;-66
2023/05/25 00:27:45;;;;;;;14.80;5.97;;;;;;;;;;5086567;28;20900;-66
2023/05/25 00:30:11;;;;;;;17.75;6.35;;;;;;;;;;5062604;28;20043;-66
2023/05/25 00:32:36;;;;;;;15.73;6.47;;;;;;;;;;5059592;28;20913;-65
2023/05/25 00:35:01;;;;;;;12.85;7.00;;;;;;;;;;5069740;28;20034;-66
2023/05/25 00:37:27;;;;;;;12.77;6.32;;;;;;;;;;5070471;28;20089;-65
2023/05/25 00:39:52;;;;;;;24.02;7.22;;;;;;;;;;5072911;28;20089;-66
2023/05/25 00:42:18;;;;;;;17.40;7.10;;;;;;;;;;5069165;28;20024;-66
2023/05/25 00:44:43;;;;;;;12.35;6.35;;;;;;;;;;5079429;28;20023;-65
2023/05/25 00:47:09;;;;;;;12.35;6.30;;;;;;;;;;5076955;28;20027;-66
2023/05/25 00:49:35;;;;;;;16.42;6.55;;;;;;;;;;5069786;28;20114;-66
2023/05/25 00:52:00;;;;;;;13.35;7.05;;;;;;;;;;5075235;28;20130;-66
2023/05/25 00:54:26;;;;;;;16.17;6.70;;;;;;;;;;5067806;28;20074;-66
2023/05/25 00:56:54;;;;;;;15.95;6.93;;;;;;;;;;5071987;28;20040;-66
2023/05/25 00:59:25;;;;;;;13.93;6.88;;;;;;;;;;5062930;28;20051;-66
2023/05/25 01:01:52;;;;;;;12.45;6.28;;;;;;;;;;5072165;28;20031;-65
2023/05/25 01:04:20;;;;;;;17.23;6.65;;;;;;;;;;5071472;28;20167;-65
2023/05/25 01:06:46;;;;;;;11.70;6.10;;;;;;;;;;5072214;28;20128;-65
2023/05/25 01:09:14;;;;;;;11.80;6.82;;;;;;;;;;5057304;28;20130;-66
2023/05/25 01:11:41;;;;;;;23.25;7.32;;;;;;;;;;5086151;28;20081;-65
2023/05/25 01:14:07;;;;;;;15.13;6.63;;;;;;;;;;5090766;28;20127;-65
2023/05/25 01:16:32;;;;;;;13.13;6.95;;;;;;;;;;5072066;28;20035;-65
2023/05/25 01:18:57;;;;;;;11.00;6.30;;;;;;;;;;5073363;28;20035;-65
2023/05/25 01:21:32;;;;;;;17.13;7.28;;;;;;;;;;5071146;28;20925;-65
2023/05/25 01:24:02;;;;;;;14.65;7.72;;;;;;;;;;5071505;28;20023;-65
2023/05/25 01:26:30;;;;;;;17.75;6.82;;;;;;;;;;5063695;28;20071;-66
2023/05/25 01:28:57;;;;;;;13.98;6.70;;;;;;;;;;5054339;28;20034;-66
2023/05/25 01:31:22;;;;;;;17.48;7.28;;;;;;;;;;5063670;28;20028;-65
2023/05/25 01:33:49;;;;;;;14.75;6.60;;;;;;;;;;5041607;28;20786;-66
2023/05/25 01:36:14;;;;;;;19.95;7.47;;;;;;;;;;5070514;28;20030;-66
2023/05/25 01:38:40;;;;;;;18.60;7.53;;;;;;;;;;5061265;28;20027;-65
2023/05/25 01:41:05;;;;;;;14.95;6.90;;;;;;;;;;5060707;28;20035;-66
2023/05/25 01:43:31;;;;;;;16.30;7.45;;;;;;;;;;5070844;28;20104;-66
2023/05/25 01:46:01;;;;;;;11.23;6.25;;;;;;;;;;5061746;28;20035;-68
2023/05/25 01:48:31;;;;;;;11.68;7.47;;;;;;;;;;5066968;28;20028;-66
2023/05/25 01:50:56;;;;;;;11.48;6.75;;;;;;;;;;5055949;28;20067;-66
2023/05/25 01:53:23;;;;;;;10.60;6.35;;;;;;;;;;5060418;28;20233;-65
2023/05/25 01:55:59;;;;;;;15.55;7.22;;;;;;;;;;5077155;28;20035;-65
2023/05/25 01:58:25;;;;;;;15.85;7.22;;;;;;;;;;5055362;28;21012;-66
2023/05/25 02:00:51;;;;;;;11.30;6.30;;;;;;;;;;5087540;28;20051;-66
2023/05/25 02:03:17;;;;;;;11.85;7.22;;;;;;;;;;5070904;28;20028;-66
2023/05/25 02:05:42;;;;;;;12.68;7.43;;;;;;;;;;5052556;28;20867;-66
2023/05/25 02:08:07;;;;;;;17.48;7.10;;;;;;;;;;5072331;28;20019;-66
2023/05/25 02:10:33;;;;;;;12.93;7.40;;;;;;;;;;5069818;28;20207;-65
2023/05/25 02:12:58;;;;;;;12.93;6.80;;;;;;;;;;5057073;28;20024;-66
2023/05/25 02:15:24;;;;;;;15.13;7.05;;;;;;;;;;5071534;28;20817;-65
2023/05/25 02:17:50;;;;;;;13.68;6.50;;;;;;;;;;5068365;28;20063;-66
2023/05/25 02:20:15;;;;;;;21.95;7.25;;;;;;;;;;5067656;28;20130;-66
2023/05/25 02:22:40;;;;;;;11.80;7.20;;;;;;;;;;5069842;28;20135;-66
2023/05/25 02:25:07;;;;;;;17.42;7.60;;;;;;;;;;5058741;28;20047;-66
2023/05/25 02:27:33;;;;;;;11.52;7.05;;;;;;;;;;5051564;28;20853;-66
2023/05/25 02:29:59;;;;;;;15.98;7.97;;;;;;;;;;5081051;28;20058;-66
2023/05/25 02:32:24;;;;;;;12.77;6.93;;;;;;;;;;5061756;28;20016;-66
2023/05/25 02:34:49;;;;;;;15.10;7.53;;;;;;;;;;5069710;28;20084;-66
2023/05/25 02:37:14;;;;;;;11.38;6.53;;;;;;;;;;5098919;28;20531;-66
2023/05/25 02:39:40;;;;;;;12.13;7.25;;;;;;;;;;5073534;28;20027;-66
2023/05/25 02:42:05;;;;;;;17.20;7.68;;;;;;;;;;5070113;28;20875;-65
2023/05/25 02:44:30;;;;;;;11.60;6.85;;;;;;;;;;5051762;28;20146;-66
2023/05/25 02:46:55;;;;;;;14.85;7.05;;;;;;;;;;5072297;28;20070;-66
2023/05/25 02:49:21;;;;;;;13.70;6.72;;;;;;;;;;5070987;28;20019;-66
2023/05/25 02:51:46;;;;;;;11.23;7.82;;;;;;;;;;5069999;28;20703;-65
2023/05/25 02:54:11;;;;;;;11.90;6.93;;;;;;;;;;5067536;28;20940;-65
2023/05/25 02:56:37;;;;;;;12.80;7.82;;;;;;;;;;5070481;28;20059;-66
2023/05/25 02:59:02;;;;;;;13.23;7.63;;;;;;;;;;5070373;28;20063;-66
2023/05/25 03:01:29;;;;;;;14.15;7.57;;;;;;;;;;5069468;28;20028;-65
2023/05/25 03:03:55;;;;;;;16.02;8.00;;;;;;;;;;5071508;28;20185;-66
2023/05/25 03:06:21;;;;;;;21.30;9.57;;;;;;;;;;5070507;28;20028;-66
2023/05/25 03:08:47;;;;;;;15.50;9.02;;;;;;;;;;5070733;28;20032;-66
2023/05/25 03:11:12;;;;;;;16.23;8.68;;;;;;;;;;5068054;28;20094;-66
2023/05/25 03:13:37;;;;;;;15.55;9.82;;;;;;;;;;5084563;28;20039;-65
2023/05/25 03:16:02;;;;;;;17.67;11.15;;;;;;;;;;5082446;28;20028;-66
2023/05/25 03:18:28;;;;;;;15.77;10.60;;;;;;;;;;5083006;28;20973;-66
2023/05/25 03:20:53;;;;;;;16.67;9.38;;;;;;;;;;5071657;28;20032;-66
2023/05/25 03:23:18;;;;;;;14.95;9.30;;;;;;;;;;5096905;28;20058;-66
2023/05/25 03:25:44;;;;;;;19.80;9.27;;;;;;;;;;5069298;28;20032;-66
2023/05/25 03:28:09;;;;;;;14.57;9.88;;;;;;;;;;5070470;28;20903;-66
2023/05/25 03:30:35;;;;;;;17.48;9.55;;;;;;;;;;5070285;28;20807;-65
2023/05/25 03:33:00;;;;;;;12.63;9.07;;;;;;;;;;5071146;28;20084;-65
2023/05/25 03:35:25;;;;;;;14.68;9.65;;;;;;;;;;5051117;28;20024;-65
2023/05/25 03:37:51;;;;;;;17.25;10.48;;;;;;;;;;5061454;28;20020;-65
2023/05/25 03:40:16;;;;;;;17.17;12.05;;;;;;;;;;5064739;28;20026;-64
2023/05/25 03:42:41;;;;;;;22.58;11.02;;;;;;;;;;5064163;28;20883;-66
2023/05/25 03:45:08;;;;;;;22.88;12.13;;;;;;;;;;5059344;28;20065;-65
2023/05/25 03:47:33;;;;;;;17.63;10.05;;;;;;;;;;5066567;28;20842;-65
2023/05/25 03:49:58;;;;;;;19.95;9.75;;;;;;;;;;5070345;28;20020;-66
2023/05/25 03:52:24;;;;;;;21.73;10.27;;;;;;;;;;5080475;28;20200;-66
2023/05/25 03:54:49;;;;;;;17.33;9.65;;;;;;;;;;5091940;28;20028;-65
2023/05/25 03:57:14;;;;;;;13.38;9.43;;;;;;;;;;5076121;28;20032;-65
2023/05/25 03:59:40;;;;;;;11.82;8.43;;;;;;;;;;5074121;28;20041;-65
2023/05/25 04:02:05;;;;;;;14.05;9.05;;;;;;;;;;5070688;28;20019;-65
2023/05/25 04:04:30;;;;;;;23.58;9.05;;;;;;;;;;5069739;28;20797;-65
2023/05/25 04:06:55;;;;;;;13.38;8.43;;;;;;;;;;5049668;28;20024;-65
2023/05/25 04:09:21;;;;;;;18.63;10.57;;;;;;;;;;5054831;28;20848;-65
2023/05/25 04:11:46;;;;;;;20.95;9.02;;;;;;;;;;5069826;28;20042;-66
2023/05/25 04:14:11;;;;;;;17.33;9.75;;;;;;;;;;5063108;28;20287;-65
2023/05/25 04:16:40;;;;;;;16.27;9.75;;;;;;;;;;5074474;28;20904;-65
2023/05/25 04:19:05;;;;;;;20.65;9.80;;;;;;;;;;5070523;28;20042;-65
2023/05/25 04:21:31;;;;;;;13.45;8.77;;;;;;;;;;5068525;28;20030;-65
2023/05/25 04:23:56;;;;;;;18.17;9.10;;;;;;;;;;5068637;28;20929;-65
2023/05/25 04:26:21;;;;;;;22.83;10.07;;;;;;;;;;5053426;28;20035;-65
2023/05/25 04:28:47;;;;;;;16.92;9.15;;;;;;;;;;5072470;28;20024;-65
2023/05/25 04:31:12;;;;;;;21.20;9.18;;;;;;;;;;5071722;28;20026;-65
2023/05/25 04:33:37;;;;;;;18.35;9.43;;;;;;;;;;5063497;28;20760;-65
2023/05/25 04:36:03;;;;;;;14.82;8.80;;;;;;;;;;5099451;28;20022;-65
2023/05/25 04:38:29;;;;;;;15.77;8.95;;;;;;;;;;5067051;28;20947;-65
2023/05/25 04:40:56;;;;;;;17.08;8.73;;;;;;;;;;5068668;28;20809;-65
2023/05/25 04:43:24;;;;;;;25.27;10.55;;;;;;;;;;5070364;28;21572;-65
2023/05/25 04:45:50;;;;;;;13.82;8.88;;;;;;;;;;5070134;28;20043;-65
2023/05/25 04:48:15;;;;;;;15.00;9.15;;;;;;;;;;5071112;28;20180;-65
2023/05/25 04:50:40;;;;;;;16.73;9.10;;;;;;;;;;5071346;28;20024;-65
2023/05/25 04:53:06;;;;;;;21.05;10.13;;;;;;;;;;5065802;28;20027;-66
2023/05/25 04:55:31;;;;;;;14.20;9.13;;;;;;;;;;5071268;28;20077;-66
2023/05/25 04:57:57;;;;;;;14.38;9.18;;;;;;;;;;5070861;28;20047;-65
2023/05/25 05:00:23;;;;;;;29.33;9.07;;;;;;;;;;5069554;28;20485;-66
2023/05/25 05:02:48;;;;;;;15.65;10.27;;;;;;;;;;5067621;28;20028;-66
2023/05/25 05:05:14;;;;;;;18.10;9.32;;;;;;;;;;5074335;28;20024;-66
2023/05/25 05:07:39;;;;;;;17.38;9.93;;;;;;;;;;5072785;28;20011;-65
2023/05/25 05:10:05;;;;;;;19.63;8.82;;;;;;;;;;5071821;28;20066;-66
2023/05/25 05:12:30;;;;;;;16.55;9.88;;;;;;;;;;5055511;28;20055;-65
2023/05/25 05:14:56;;;;;;;16.10;9.80;;;;;;;;;;5064705;28;20869;-66
2023/05/25 05:17:22;;;;;;;20.70;10.18;;;;;;;;;;5068839;28;20027;-65
2023/05/25 05:19:48;;;;;;;22.65;10.35;;;;;;;;;;5063995;28;20028;-65
2023/05/25 05:22:14;;;;;;;25.38;9.98;;;;;;;;;;5068284;28;20128;-66
2023/05/25 05:24:40;;;;;;;18.83;9.25;;;;;;;;;;5054644;28;20170;-65
2023/05/25 05:27:05;;;;;;;23.13;10.27;;;;;;;;;;5067969;28;20122;-65
2023/05/25 05:29:32;;;;;;;14.18;9.45;;;;;;;;;;5073416;28;20031;-65
2023/05/25 05:31:58;;;;;;;17.77;9.45;;;;;;;;;;5063653;28;20066;-65
2023/05/25 05:34:23;;;;;;;16.23;10.02;;;;;;;;;;5067418;28;20024;-65
2023/05/25 05:36:48;;;;;;;21.25;10.50;;;;;;;;;;5064048;28;20955;-65
2023/05/25 05:39:14;;;;;;;26.73;9.02;;;;;;;;;;5068338;28;20032;-66
2023/05/25 05:41:42;;;;;;;22.90;11.15;;;;;;;;;;5101534;28;20470;-65
2023/05/25 05:44:07;;;;;;;18.45;10.27;;;;;;;;;;5076177;28;20100;-65
2023/05/25 05:46:33;;;;;;;22.17;9.70;;;;;;;;;;5063906;28;20054;-65
2023/05/25 05:48:58;;;;;;;15.13;9.10;;;;;;;;;;5030869;28;21260;-66
2023/05/25 05:51:23;;;;;;;15.63;8.85;;;;;;;;;;5066207;28;20015;-66
2023/05/25 05:53:49;;;;;;;18.02;9.38;;;;;;;;;;5084430;28;20062;-66
2023/05/25 05:56:17;;;;;;;19.33;10.20;;;;;;;;;;5065238;28;20031;-66
2023/05/25 05:58:42;;;;;;;21.70;10.60;;;;;;;;;;5065413;28;20568;-66
2023/05/25 06:01:08;;;;;;;16.27;10.82;;;;;;;;;;5074148;28;20023;-66
2023/05/25 06:03:33;;;;;;;15.27;9.90;;;;;;;;;;5110210;28;20541;-65
2023/05/25 06:05:58;;;;;;;18.95;9.82;;;;;;;;;;5103988;28;20031;-65
2023/05/25 06:08:24;;;;;;;18.27;11.00;;;;;;;;;;5109830;28;20023;-66
2023/05/25 06:10:49;;;;;;;16.15;9.43;;;;;;;;;;5081471;28;20031;-66
2023/05/25 06:13:14;;;;;;;23.55;10.57;;;;;;;;;;5069307;28;20922;-66
2023/05/25 06:15:40;;;;;;;19.38;10.25;;;;;;;;;;5076780;28;20024;-65
2023/05/25 06:18:05;;;;;;;14.00;10.32;;;;;;;;;;5097070;28;20108;-65
2023/05/25 06:20:30;;;;;;;15.90;10.80;;;;;;;;;;5105789;28;20031;-65
2023/05/25 06:22:55;;;;;;;23.85;10.35;;;;;;;;;;5056746;28;20023;-65
2023/05/25 06:25:21;;;;;;;23.90;10.38;;;;;;;;;;5062587;28;20079;-66
2023/05/25 06:27:46;;;;;;;16.45;10.60;;;;;;;;;;5062731;28;20845;-66
2023/05/25 06:30:11;;;;;;;18.73;9.63;;;;;;;;;;5068899;28;20071;-65
2023/05/25 06:32:37;;;;;;;25.75;9.23;;;;;;;;;;5068853;28;20027;-65
2023/05/25 06:35:03;;;;;;;15.05;9.65;;;;;;;;;;5098671;28;20067;-65
2023/05/25 06:37:33;;;;;;;19.25;10.55;;;;;;;;;;5104772;28;20030;-65
2023/05/25 06:39:59;;;;;;;16.80;9.98;;;;;;;;;;5108463;28;20503;-66
2023/05/25 06:42:25;;;;;;;16.35;9.95;;;;;;;;;;5108253;28;20024;-66
2023/05/25 06:44:50;;;;;;;20.80;10.27;;;;;;;;;;5106497;28;20023;-66
2023/05/25 06:47:15;;;;;;;21.15;10.90;;;;;;;;;;5050005;28;20019;-66
2023/05/25 06:49:40;;;;;;;20.65;9.90;;;;;;;;;;5070337;28;20515;-66
2023/05/25 06:52:06;;;;;;;18.15;10.02;;;;;;;;;;5068612;28;20031;-66
2023/05/25 06:54:31;;;;;;;18.77;10.00;;;;;;;;;;5065448;28;20871;-66
2023/05/25 06:56:57;;;;;;;14.90;10.00;;;;;;;;;;5064416;28;20027;-67
2023/05/25 06:59:22;;;;;;;21.10;9.05;;;;;;;;;;5062963;28;20028;-66
2023/05/25 07:01:47;;;;;;;15.35;9.73;;;;;;;;;;5065955;28;20035;-66
2023/05/25 07:04:13;;;;;;;22.77;9.85;;;;;;;;;;5064879;28;20023;-66
2023/05/25 07:06:39;;;;;;;20.27;9.20;;;;;;;;;;5063691;28;20074;-66
2023/05/25 07:09:04;;;;;;;18.17;10.40;;;;;;;;;;5063269;28;20023;-66
2023/05/25 07:11:29;;;;;;;27.05;9.75;;;;;;;;;;5085732;28;20028;-65
2023/05/25 07:13:55;;;;;;;18.50;9.32;;;;;;;;;;5088808;28;20059;-66
2023/05/25 07:16:20;;;;;;;19.70;9.82;;;;;;;;;;5093830;28;20532;-65
2023/05/25 07:18:45;;;;;;;14.63;8.75;;;;;;;;;;5092832;28;20025;-65
2023/05/25 07:21:10;;;;;;;13.55;8.57;;;;;;;;;;5092575;28;20024;-65
2023/05/25 07:23:36;;;;;;;15.73;9.27;;;;;;;;;;5093715;28;20028;-65
2023/05/25 07:26:02;;;;;;;33.30;9.63;;;;;;;;;;5088726;28;20027;-65
2023/05/25 07:28:27;;;;;;;24.23;8.85;;;;;;;;;;5064891;28;20028;-66
2023/05/25 07:30:52;;;;;;;17.30;9.30;;;;;;;;;;5074619;28;20020;-65
2023/05/25 07:33:18;;;;;;;16.70;9.32;;;;;;;;;;5064277;28;20066;-65
2023/05/25 07:35:43;;;;;;;19.15;9.38;;;;;;;;;;5098472;28;20057;-62
2023/05/25 07:38:08;;;;;;;14.13;7.93;;;;;;;;;;5106779;28;20470;-65
2023/05/25 07:40:33;;;;;;;15.13;8.82;;;;;;;;;;5106192;28;20034;-65
2023/05/25 07:42:59;;;;;;;30.85;9.48;;;;;;;;;;5112533;28;20016;-66
2023/05/25 07:45:24;;;;;;;19.13;8.32;;;;;;;;;;5113573;28;20135;-66
2023/05/25 07:47:49;;;;;;;18.13;8.50;;;;;;;;;;5112873;28;20016;-65
2023/05/25 07:50:15;;;;;;;16.45;9.00;;;;;;;;;;5102156;28;20854;-66
2023/05/25 07:52:40;;;;;;;16.02;8.50;;;;;;;;;;5069712;28;20023;-66
2023/05/25 07:55:06;;;;;;;15.52;9.13;;;;;;;;;;5068735;28;20130;-66
2023/05/25 07:57:32;;;;;;;14.15;7.68;;;;;;;;;;5071893;28;20028;-66
2023/05/25 07:59:57;;;;;;;14.38;7.63;;;;;;;;;;5067676;28;20092;-65
2023/05/25 08:02:22;;;;;;;13.45;8.65;;;;;;;;;;5068454;28;20036;-65
2023/05/25 08:04:47;;;;;;;21.38;8.65;;;;;;;;;;5086766;28;20068;-65
2023/05/25 08:07:13;;;;;;;17.73;9.68;;;;;;;;;;5093460;28;20028;-66
2023/05/25 08:09:38;;;;;;;14.88;8.32;;;;;;;;;;5066569;28;20811;-66
2023/05/25 08:12:03;;;;;;;14.07;7.13;;;;;;;;;;5071399;28;20027;-66
2023/05/25 08:14:29;;;;;;;16.27;8.13;;;;;;;;;;5071956;28;20880;-64
2023/05/25 08:16:54;;;;;;;16.00;8.52;;;;;;;;;;5070072;28;20050;-65
2023/05/25 08:19:20;;;;;;;13.35;6.80;;;;;;;;;;5068871;28;20892;-65
2023/05/25 08:21:46;;;;;;;15.35;7.38;;;;;;;;;;5070312;28;20061;-65
2023/05/25 08:24:11;;;;;;;17.02;10.95;;;;;;;;;;5071568;28;20028;-65
2023/05/25 08:26:37;;;;;;;19.17;9.77;;;;;;;;;;5092626;28;20119;-65
2023/05/25 08:29:03;;;;;;;15.50;8.40;;;;;;;;;;5062633;28;20898;-65
2023/05/25 08:31:28;;;;;;;13.52;7.40;;;;;;;;;;5070311;28;20052;-66
2023/05/25 08:33:54;;;;;;;21.42;8.63;;;;;;;;;;5070356;28;20858;-65
2023/05/25 08:36:19;;;;;;;13.95;8.13;;;;;;;;;;5068565;28;20036;-65
2023/05/25 08:38:44;;;;;;;18.17;8.57;;;;;;;;;;5069804;28;20755;-66
2023/05/25 08:41:10;;;;;;;17.83;8.73;;;;;;;;;;5069192;28;20020;-66
2023/05/25 08:43:36;;;;;;;15.05;7.70;;;;;;;;;;5062080;28;20028;-66
2023/05/25 08:46:02;;;;;;;14.60;8.75;;;;;;;;;;5067848;28;20515;-66
2023/05/25 08:48:29;;;;;;;16.60;8.30;;;;;;;;;;5069479;28;20086;-65
2023/05/25 08:50:55;;;;;;;13.13;8.13;;;;;;;;;;5065565;28;20016;-65
2023/05/25 08:53:21;;;;;;;24.80;7.72;;;;;;;;;;5062421;28;20028;-65
2023/05/25 08:55:48;;;;;;;13.90;7.90;;;;;;;;;;5068184;28;20328;-64
2023/05/25 08:58:16;;;;;;;15.45;7.72;;;;;;;;;;5070435;28;20027;-65
2023/05/25 09:00:43;;;;;;;16.27;8.02;;;;;;;;;;5068146;28;20214;-63
2023/05/25 09:03:11;;;;;;;14.60;8.30;;;;;;;;;;5069766;28;20961;-65
2023/05/25 09:05:37;;;;;;;14.73;8.70;;;;;;;;;;5069219;28;20022;-65
2023/05/25 09:08:03;;;;;;;14.48;8.95;;;;;;;;;;5064643;28;20028;-65
2023/05/25 09:10:30;;;;;;;15.32;8.05;;;;;;;;;;5087739;28;20092;-61
2023/05/25 09:12:55;;;;;;;15.68;7.72;;;;;;;;;;5109990;28;20375;-65
2023/05/25 09:15:20;;;;;;;12.60;7.78;;;;;;;;;;5098424;28;20028;-62
2023/05/25 09:17:46;;;;;;;16.20;6.68;;;;;;;;;;5104686;28;20024;-64
2023/05/25 09:20:12;;;;;;;14.88;7.50;;;;;;;;;;5092226;28;20035;-65
2023/05/25 09:22:38;;;;;;;15.00;6.97;;;;;;;;;;5077719;28;20070;-64
2023/05/25 09:25:05;;;;;;;13.07;6.95;;;;;;;;;;5071487;28;20035;-64
2023/05/25 09:27:33;;;;;;;9.70;6.57;;;;;;;;;;5068082;28;20140;-64
2023/05/25 09:30:00;;;;;;;15.82;7.28;;;;;;;;;;5069184;28;20031;-65
2023/05/25 09:32:25;;;;;;;17.48;7.15;;;;;;;;;;5067426;28;20039;-64
2023/05/25 09:34:52;;;;;;;14.65;6.53;;;;;;;;;;5070757;28;20034;-65
2023/05/25 09:37:20;;;;;;;10.70;6.22;;;;;;;;;;5068997;28;20019;-66
2023/05/25 09:39:46;;;;;;;11.48;6.10;;;;;;;;;;5045302;28;20036;-64
2023/05/25 09:42:11;;;;;;;20.95;6.55;;;;;;;;;;5057503;28;20030;-64
2023/05/25 09:44:37;;;;;;;17.25;5.90;;;;;;;;;;5095400;28;20023;-65
2023/05/25 09:47:03;;;;;;;8.50;4.88;;;;;;;;;;5103979;28;20032;-66
2023/05/25 09:49:29;;;;;;;8.98;5.80;;;;;;;;;;5091323;28;20020;-63
2023/05/25 09:51:55;;;;;;;9.25;4.85;;;;;;;;;;5092207;28;20070;-64
2023/05/25 09:54:21;;;;;;;9.55;5.45;;;;;;;;;;5092273;28;20028;-63
2023/05/25 09:56:47;;;;;;;18.23;5.80;;;;;;;;;;5067747;28;20028;-64
2023/05/25 09:59:12;;;;;;;9.02;5.03;;;;;;;;;;5069127;28;20129;-65
2023/05/25 10:01:38;;;;;;;9.70;5.60;;;;;;;;;;5095414;28;20016;-64
2023/05/25 10:04:06;;;;;;;12.65;5.05;;;;;;;;;;5092396;28;20808;-64
2023/05/25 10:06:32;;;;;;;12.10;5.80;;;;;;;;;;5037197;28;20024;-66
2023/05/25 10:08:58;;;;;;;10.10;5.45;;;;;;;;;;5067526;28;20023;-64
2023/05/25 10:11:23;;;;;;;9.30;5.03;;;;;;;;;;5069305;28;20772;-66
2023/05/25 10:13:50;;;;;;;13.77;5.47;;;;;;;;;;5097944;28;20111;-66
2023/05/25 10:16:17;;;;;;;11.50;5.75;;;;;;;;;;5093327;28;20024;-63
2023/05/25 10:19:02;;;;;;;10.85;4.72;;;;;;;;;;5094070;28;20028;-65
2023/05/25 10:21:29;;;;;;;11.15;4.72;;;;;;;;;;5106182;28;20035;-63
2023/05/25 10:24:05;;;;;;;11.73;4.13;;;;;;;;;;5103641;28;20054;-65
2023/05/25 10:26:34;;;;;;;9.18;4.97;;;;;;;;;;5105307;28;20023;-66
2023/05/25 10:29:03;;;;;;;9.48;5.32;;;;;;;;;;5106536;28;20031;-66
2023/05/25 10:31:28;;;;;;;13.88;5.40;;;;;;;;;;5106707;28;20032;-66
2023/05/25 10:33:54;;;;;;;7.85;5.13;;;;;;;;;;5088630;28;20061;-66
2023/05/25 10:36:20;;;;;;;6.97;4.70;;;;;;;;;;5105863;28;20500;-65
2023/05/25 10:38:46;;;;;;;9.60;4.47;;;;;;;;;;5106318;28;20012;-65
2023/05/25 10:41:14;;;;;;;10.13;4.53;;;;;;;;;;5105345;28;20424;-66
2023/05/25 10:43:40;;;;;;;7.43;4.65;;;;;;;;;;5106842;28;20024;-65
2023/05/25 10:46:06;;;;;;;11.82;4.97;;;;;;;;;;5104528;28;20034;-65
2023/05/25 10:48:37;;;;;;;6.70;4.60;;;;;;;;;;5106661;28;20483;-65
2023/05/25 10:51:03;;;;;;;8.15;4.80;;;;;;;;;;5105092;28;20471;-66
2023/05/25 10:53:28;;;;;;;8.80;4.72;;;;;;;;;;5097115;28;20020;-65
2023/05/25 10:55:54;;;;;;;6.22;4.18;;;;;;;;;;5104928;28;20023;-62
2023/05/25 10:58:22;;;;;;;7.75;4.80;;;;;;;;;;5106878;28;20023;-66
2023/05/25 11:01:00;;;;;;;6.75;4.25;;;;;;;;;;5102802;28;20028;-65
2023/05/25 11:03:45;;;;;;;6.85;3.53;;;;;;;;;;5110418;28;20152;-64
2023/05/25 11:06:10;;;;;;;7.82;4.13;;;;;;;;;;5097449;28;20028;-63
2023/05/25 11:09:08;;;;;;;8.85;4.10;;;;;;;;;;5090854;28;20160;-65
2023/05/25 11:11:43;;;;;;;7.32;3.88;;;;;;;;;;5044047;28;20097;-64
2023/05/25 11:14:21;;;;;;;5.95;4.20;;;;;;;;;;5090431;28;20036;-65
2023/05/25 11:17:06;;;;;;;9.63;3.78;;;;;;;;;;5089906;28;20271;-66
2023/05/25 11:19:42;;;;;;;7.45;3.25;;;;;;;;;;5090052;28;20032;-66
2023/05/25 11:22:30;;;;;;;6.43;3.35;;;;;;;;;;5086688;28;20023;-66
2023/05/25 11:24:57;;;;;;;5.85;3.33;;;;;;;;;;5084647;28;20063;-66
2023/05/25 11:27:23;;;;;;;5.00;3.15;;;;;;;;;;5109240;28;20023;-64
2023/05/25 11:29:51;;;;;;;7.45;4.18;;;;;;;;;;5098910;28;20030;-68
2023/05/25 11:32:17;;;;;;;5.70;3.85;;;;;;;;;;5094204;28;20028;-62
2023/05/25 11:34:45;;;;;;;6.95;3.70;;;;;;;;;;5057705;28;20016;-67
2023/05/25 11:37:12;;;;;;;8.50;4.03;;;;;;;;;;5059664;28;20012;-67
2023/05/25 11:39:38;;;;;;;7.15;3.60;;;;;;;;;;5060223;28;20040;-67
2023/05/25 11:42:05;;;;;;;9.15;4.20;;;;;;;;;;5066559;28;20024;-67
2023/05/25 11:44:32;;;;;;;9.45;4.10;;;;;;;;;;5067765;28;20086;-67
2023/05/25 11:47:00;;;;;;;9.95;4.50;;;;;;;;;;5067125;28;20023;-66
2023/05/25 11:49:26;;;;;;;9.48;4.28;;;;;;;;;;5068065;28;20059;-66
2023/05/25 11:51:52;;;;;;;7.10;3.65;;;;;;;;;;5067935;28;20028;-69
2023/05/25 11:54:25;;;;;;;6.80;4.50;;;;;;;;;;5056046;28;20031;-66
2023/05/25 11:56:50;;;;;;;5.57;3.63;;;;;;;;;;5068673;28;20020;-65
2023/05/25 11:59:15;;;;;;;6.25;4.20;;;;;;;;;;5059469;28;20123;-67
2023/05/25 12:01:41;;;;;;;12.50;3.90;;;;;;;;;;5066823;28;20683;-67
2023/05/25 12:04:07;;;;;;;9.10;4.15;;;;;;;;;;5064292;28;20273;-65
2023/05/25 12:06:35;;;;;;;7.05;3.92;;;;;;;;;;5067356;28;20035;-66
2023/05/25 12:09:00;;;;;;;8.20;4.32;;;;;;;;;;5067944;28;20055;-65
2023/05/25 12:11:38;;;;;;;6.70;4.15;;;;;;;;;;5068835;28;20074;-67
2023/05/25 12:14:04;;;;;;;8.32;4.55;;;;;;;;;;5067061;28;20651;-66
2023/05/25 12:16:31;;;;;;;6.45;3.78;;;;;;;;;;5051660;28;20051;-65
2023/05/25 12:18:56;;;;;;;8.65;4.88;;;;;;;;;;5104164;28;20055;-62
2023/05/25 12:21:22;;;;;;;9.60;5.03;;;;;;;;;;5097004;28;20058;-64
2023/05/25 12:23:47;;;;;;;7.05;4.88;;;;;;;;;;5089614;28;20031;-65
2023/05/25 12:26:13;;;;;;;11.13;4.57;;;;;;;;;;5105062;28;20534;-64
2023/05/25 12:28:39;;;;;;;12.30;4.95;;;;;;;;;;5108328;28;20084;-66
2023/05/25 12:31:20;;;;;;;5.68;3.85;;;;;;;;;;5084236;28;20023;-62
2023/05/25 12:33:45;;;;;;;7.05;3.97;;;;;;;;;;5091182;28;20099;-66
2023/05/25 12:36:12;;;;;;;12.47;4.33;;;;;;;;;;5098952;28;20450;-65
2023/05/25 12:38:37;;;;;;;10.05;5.82;;;;;;;;;;5104941;28;20700;-66
2023/05/25 12:41:08;;;;;;;6.38;4.35;;;;;;;;;;5104384;28;20062;-65
2023/05/25 12:43:41;;;;;;;9.93;5.18;;;;;;;;;;5094503;28;20035;-65
2023/05/25 12:46:07;;;;;;;10.80;4.77;;;;;;;;;;5106657;28;20102;-62
2023/05/25 12:48:32;;;;;;;11.00;4.43;;;;;;;;;;5101004;28;20353;-65
2023/05/25 12:50:57;;;;;;;10.23;5.32;;;;;;;;;;5110452;28;20334;-66
2023/05/25 12:53:24;;;;;;;10.52;4.68;;;;;;;;;;5111827;28;20084;-66
2023/05/25 12:55:50;;;;;;;7.47;4.60;;;;;;;;;;5111644;28;20661;-66
2023/05/25 12:58:26;;;;;;;8.15;5.63;;;;;;;;;;5111309;28;20279;-66
2023/05/25 13:00:51;;;;;;;9.60;4.60;;;;;;;;;;5110183;28;20043;-65
2023/05/25 13:03:17;;;;;;;8.43;4.72;;;;;;;;;;5106406;28;20028;-66
2023/05/25 13:05:42;;;;;;;13.73;5.25;;;;;;;;;;5108928;28;20493;-66
2023/05/25 13:08:08;;;;;;;13.70;4.43;;;;;;;;;;5085413;28;20031;-65
2023/05/25 13:10:35;;;;;;;8.38;4.72;;;;;;;;;;5069644;28;20020;-66
2023/05/25 13:13:02;;;;;;;12.02;5.25;;;;;;;;;;5071997;28;20031;-66
2023/05/25 13:15:27;;;;;;;11.80;5.90;;;;;;;;;;5090335;28;20028;-67
2023/05/25 13:17:53;;;;;;;10.73;5.23;;;;;;;;;;5064913;28;20035;-65
2023/05/25 13:20:20;;;;;;;11.23;5.20;;;;;;;;;;5068301;28;20300;-62
2023/05/25 13:22:45;;;;;;;11.57;5.45;;;;;;;;;;5081553;28;20032;-62
2023/05/25 13:25:12;;;;;;;7.57;5.05;;;;;;;;;;5105079;28;20541;-64
2023/05/25 13:27:37;;;;;;;13.85;5.75;;;;;;;;;;5105984;28;20114;-67
2023/05/25 13:30:06;;;;;;;12.13;5.95;;;;;;;;;;5100087;28;20110;-67
2023/05/25 13:32:31;;;;;;;8.68;5.22;;;;;;;;;;5105950;28;20367;-64
2023/05/25 13:34:58;;;;;;;16.35;5.88;;;;;;;;;;5094801;28;20023;-66
2023/05/25 13:37:27;;;;;;;9.57;4.68;;;;;;;;;;5068943;28;20134;-67
2023/05/25 13:39:52;;;;;;;11.90;5.43;;;;;;;;;;5068407;28;20024;-67
2023/05/25 13:42:18;;;;;;;7.75;4.03;;;;;;;;;;5069288;28;20019;-66
2023/05/25 13:44:43;;;;;;;9.90;4.70;;;;;;;;;;5072168;28;20045;-68
2023/05/25 13:47:08;;;;;;;9.53;4.73;;;;;;;;;;5101784;28;20024;-64
2023/05/25 13:49:33;;;;;;;7.57;4.23;;;;;;;;;;5094606;28;20305;-67
2023/05/25 13:51:58;;;;;;;8.00;4.67;;;;;;;;;;5093335;28;20353;-65
2023/05/25 13:54:24;;;;;;;11.00;4.23;;;;;;;;;;5103738;28;20794;-64
2023/05/25 13:56:49;;;;;;;11.15;5.05;;;;;;;;;;5093915;28;20276;-67
2023/05/25 13:59:14;;;;;;;9.35;4.53;;;;;;;;;;5094062;28;20497;-64
2023/05/25 14:01:40;;;;;;;9.95;4.85;;;;;;;;;;5100445;28;20386;-66
2023/05/25 14:04:05;;;;;;;7.35;4.70;;;;;;;;;;5110997;28;20030;-67
2023/05/25 14:06:31;;;;;;;10.40;6.35;;;;;;;;;;5111043;28;20028;-65
2023/05/25 14:08:56;;;;;;;11.48;5.70;;;;;;;;;;5107328;28;20024;-65
2023/05/25 14:11:21;;;;;;;9.27;5.30;;;;;;;;;;5099026;28;20027;-63
2023/05/25 14:13:47;;;;;;;9.85;5.20;;;;;;;;;;5102197;28;20271;-64
2023/05/25 14:16:12;;;;;;;9.85;4.88;;;;;;;;;;5103729;28;20585;-63
2023/05/25 14:18:37;;;;;;;6.67;4.57;;;;;;;;;;5102475;28;20098;-63
2023/05/25 14:21:02;;;;;;;10.63;5.22;;;;;;;;;;5108547;28;20327;-63
2023/05/25 14:23:28;;;;;;;10.60;5.75;;;;;;;;;;5098158;28;20019;-63
2023/05/25 14:25:53;;;;;;;12.73;5.07;;;;;;;;;;5095599;28;20027;-65